Time;durP1;ratioP1;P1;durP2;ratioP2;P2;SDS_P1;SDS_P2;PMS_P1;PMS_P2;Temp;Humidity;BMP_temperature;BMP_pressure;BME280_temperature;BME280_humidity;BME280_pressure;Samples;Min_cycle;Max_cycle;Signal;HPM_P1;HPM_P2
2022/09/05 00:02:25;;;;;;;7.72;4.72;;;;;;;16.26;67.25;101237.56;18434356;32;20105;-56
2022/09/05 00:12:30;;;;;;;9.95;5.05;;;;;;;16.12;67.50;101240.34;18434391;32;20085;-56
2022/09/05 00:22:43;;;;;;;8.52;4.87;;;;;;;16.00;68.34;101246.66;18434348;32;20112;-56
2022/09/05 00:33:16;;;;;;;9.63;4.25;;;;;;;16.22;67.13;101236.75;18435003;32;20093;-56
2022/09/05 00:43:22;;;;;;;8.55;4.37;;;;;;;15.95;68.02;101238.81;18433874;32;20092;-56
2022/09/05 00:53:31;;;;;;;9.43;5.05;;;;;;;16.12;66.70;101242.12;18433577;32;20117;-56
2022/09/05 01:03:45;;;;;;;12.30;4.93;;;;;;;16.03;66.63;101238.72;18433283;32;20112;-56
2022/09/05 01:13:52;;;;;;;11.93;5.35;;;;;;;15.86;68.46;101238.88;18230578;32;20121;-56
2022/09/05 01:24:24;;;;;;;8.43;4.37;;;;;;;15.71;68.47;101232.03;18232861;32;20425;-56
2022/09/05 01:34:34;;;;;;;8.23;4.32;;;;;;;15.90;67.41;101232.72;18167517;32;20282;-56
2022/09/05 01:44:43;;;;;;;9.45;4.87;;;;;;;15.87;67.14;101235.38;18242558;32;20101;-56
2022/09/05 01:54:57;;;;;;;10.02;4.80;;;;;;;15.97;66.99;101228.25;18425652;32;20128;-56
2022/09/05 02:05:16;;;;;;;9.52;4.68;;;;;;;15.67;67.11;101225.91;18430870;32;20096;-56
2022/09/05 02:15:45;;;;;;;9.68;4.93;;;;;;;15.55;67.28;101231.28;18430695;32;20097;-56
2022/09/05 02:26:05;;;;;;;10.82;4.97;;;;;;;15.50;67.75;101236.59;18429414;32;20124;-56
2022/09/05 02:36:15;;;;;;;10.10;4.68;;;;;;;15.49;67.54;101229.59;18429478;32;20150;-56
2022/09/05 02:46:28;;;;;;;9.80;4.37;;;;;;;15.44;67.28;101235.78;18428912;32;20447;-56
2022/09/05 02:56:45;;;;;;;10.88;5.12;;;;;;;15.37;67.29;101241.13;18428185;32;20089;-56
2022/09/05 03:07:18;;;;;;;12.07;5.57;;;;;;;15.20;68.75;101245.62;18428421;32;20358;-56
2022/09/05 03:17:53;;;;;;;9.27;4.55;;;;;;;15.21;68.08;101258.75;18427000;32;20103;-56
2022/09/05 03:28:32;;;;;;;10.27;5.18;;;;;;;14.98;68.85;101251.91;18424497;32;20096;-56
2022/09/05 03:39:15;;;;;;;10.77;4.75;;;;;;;14.92;68.66;101264.25;18434640;32;20093;-56
2022/09/05 03:49:41;;;;;;;11.07;5.07;;;;;;;14.96;68.47;101264.22;18435573;32;20462;-56
2022/09/05 04:00:11;;;;;;;10.18;5.00;;;;;;;15.11;68.05;101268.50;18435938;32;20081;-56
2022/09/05 04:10:26;;;;;;;8.88;4.45;;;;;;;14.74;69.47;101280.97;18434955;32;20485;-56
2022/09/05 04:20:39;;;;;;;8.88;4.03;;;;;;;15.02;67.81;101288.69;18434680;32;20154;-56
2022/09/05 04:30:46;;;;;;;11.38;4.45;;;;;;;14.65;69.01;101295.03;18434075;32;20132;-56
2022/09/05 04:41:00;;;;;;;8.90;4.82;;;;;;;14.62;68.86;101310.81;18433099;32;20111;-56
2022/09/05 04:51:08;;;;;;;8.43;3.58;;;;;;;15.00;68.48;101314.13;18433788;32;20092;-56
2022/09/05 05:01:21;;;;;;;9.40;3.85;;;;;;;15.06;68.04;101322.84;18433201;32;20377;-56
2022/09/05 05:11:48;;;;;;;7.53;3.87;;;;;;;15.15;68.91;101336.84;18417687;32;20105;-56
2022/09/05 05:22:15;;;;;;;8.90;4.15;;;;;;;15.44;68.51;101346.28;18433550;32;20098;-57
2022/09/05 05:32:23;;;;;;;11.75;5.12;;;;;;;15.95;68.45;101351.16;18432638;32;20117;-56
2022/09/05 05:42:48;;;;;;;9.77;4.60;;;;;;;16.64;68.87;101348.66;18432179;32;20113;-56
2022/09/05 05:53:16;;;;;;;7.80;4.10;;;;;;;17.75;68.02;101340.91;18431235;32;20524;-56
2022/09/05 06:04:00;;;;;;;7.90;3.78;;;;;;;19.60;61.99;101333.59;18430101;32;20097;-56
2022/09/05 06:14:32;;;;;;;8.60;3.60;;;;;;;21.35;56.36;101341.03;18428808;32;20160;-57
2022/09/05 06:25:30;;;;;;;8.83;3.57;;;;;;;22.22;53.99;101339.91;18366821;32;20446;-56
2022/09/05 06:35:45;;;;;;;8.23;3.72;;;;;;;23.24;51.57;101336.97;18171170;32;20582;-57
2022/09/05 06:46:23;;;;;;;11.65;4.07;;;;;;;24.30;48.45;101332.56;18224653;32;20132;-56
2022/09/05 06:56:57;;;;;;;9.50;4.10;;;;;;;24.57;47.18;101337.56;18223836;32;20118;-56
2022/09/05 07:07:14;;;;;;;8.05;3.00;;;;;;;24.70;47.77;101333.38;18295623;32;20187;-56
2022/09/05 07:17:21;;;;;;;5.00;2.47;;;;;;;25.06;46.86;101351.28;18499217;32;20104;-56
2022/09/05 07:27:34;;;;;;;5.37;2.92;;;;;;;25.24;46.05;101347.78;18501507;32;20089;-56
2022/09/05 07:38:03;;;;;;;9.40;3.70;;;;;;;25.08;47.42;101346.72;18500125;32;20089;-55
2022/09/05 07:48:11;;;;;;;6.00;3.00;;;;;;;25.06;47.57;101345.94;18500071;32;20088;-56
2022/09/05 07:58:18;;;;;;;5.78;2.72;;;;;;;25.21;48.05;101351.44;18499797;32;20107;-56
2022/09/05 08:08:25;;;;;;;7.05;2.87;;;;;;;25.43;46.05;101345.06;18498253;32;20096;-56
2022/09/05 08:18:35;;;;;;;5.35;2.75;;;;;;;25.40;46.90;101343.41;18474837;32;20459;-56
2022/09/05 08:28:52;;;;;;;5.43;2.72;;;;;;;25.49;47.39;101342.94;18434339;32;20150;-56
2022/09/05 08:38:57;;;;;;;3.50;1.98;;;;;;;25.28;46.25;101342.19;18486208;32;20084;-56
2022/09/05 08:49:29;;;;;;;4.15;2.33;;;;;;;25.97;42.47;101333.44;18377890;32;20107;-56
2022/09/05 08:59:43;;;;;;;5.12;2.20;;;;;;;26.32;41.06;101325.37;18371929;32;20494;-57
2022/09/05 09:10:20;;;;;;;6.05;2.22;;;;;;;26.29;42.03;101322.88;18498698;32;20131;-56
2022/09/05 09:20:36;;;;;;;4.72;2.05;;;;;;;26.59;40.54;101319.47;18465554;32;20115;-56
2022/09/05 09:30:54;;;;;;;4.72;2.17;;;;;;;25.45;41.77;101306.59;18434718;32;20092;-56
2022/09/05 09:41:44;;;;;;;3.92;1.95;;;;;;;26.62;40.48;101297.84;18496579;32;20088;-56
2022/09/05 09:52:26;;;;;;;4.00;2.05;;;;;;;26.58;39.10;101289.12;18471886;32;20358;-56
2022/09/05 10:02:47;;;;;;;4.55;2.10;;;;;;;27.81;37.78;101283.91;18157201;32;20117;-56
2022/09/05 10:13:35;;;;;;;4.50;2.20;;;;;;;28.51;35.87;101277.78;18158737;32;20253;-57
2022/09/05 10:23:53;;;;;;;3.62;1.90;;;;;;;27.98;36.67;101272.13;18106146;32;20199;-56
2022/09/05 10:34:03;;;;;;;4.00;2.22;;;;;;;27.48;36.15;101269.72;18242736;32;20108;-56
2022/09/05 10:44:34;;;;;;;5.90;1.90;;;;;;;27.22;35.71;101261.44;18419812;32;20101;-56
2022/09/05 10:54:47;;;;;;;4.62;2.08;;;;;;;27.50;35.81;101249.03;18423852;32;20444;-56
2022/09/05 11:05:01;;;;;;;4.20;1.92;;;;;;;28.19;34.58;101232.38;18436320;32;20096;-56
2022/09/05 11:15:09;;;;;;;4.32;1.83;;;;;;;27.03;36.43;101234.88;18448768;32;20092;-56
2022/09/05 11:25:17;;;;;;;4.55;1.95;;;;;;;26.97;36.69;101228.06;18461842;32;20097;-56
2022/09/05 11:35:32;;;;;;;4.15;1.87;;;;;;;27.79;33.82;101219.63;18460973;32;20087;-56
2022/09/05 11:46:18;;;;;;;3.40;1.90;;;;;;;28.37;34.51;101211.53;18500767;32;20084;-56
2022/09/05 11:56:59;;;;;;;3.33;1.95;;;;;;;27.65;33.62;101204.41;18466305;32;20150;-56
2022/09/05 12:07:44;;;;;;;2.75;1.55;;;;;;;29.02;33.97;101192.97;18478700;32;20163;-57
2022/09/05 12:18:12;;;;;;;5.15;1.85;;;;;;;28.98;32.70;101179.84;18462265;32;20092;-56
2022/09/05 12:28:30;;;;;;;5.28;2.08;;;;;;;28.71;33.76;101178.91;18433811;32;20115;-56
2022/09/05 12:39:01;;;;;;;5.40;2.15;;;;;;;28.48;34.40;101183.13;18427608;32;20104;-56
2022/09/05 12:49:31;;;;;;;3.40;1.80;;;;;;;28.31;35.92;101176.16;18413628;32;20142;-56
2022/09/05 12:59:43;;;;;;;6.05;2.22;;;;;;;27.52;34.00;101160.47;18466123;32;20187;-56
2022/09/05 13:10:14;;;;;;;3.47;1.70;;;;;;;27.49;34.41;101152.66;18384203;32;20093;-56
2022/09/05 13:20:45;;;;;;;15.73;5.97;;;;;;;28.18;33.08;101138.50;18365129;32;20112;-56
2022/09/05 13:30:53;;;;;;;2.70;1.90;;;;;;;28.97;32.81;101125.25;18368129;32;20452;-56
2022/09/05 13:41:26;;;;;;;3.90;2.28;;;;;;;28.55;32.96;101128.06;18368405;32;20094;-56
2022/09/05 13:51:36;;;;;;;5.65;2.30;;;;;;;28.91;32.11;101118.47;18354798;32;20456;-56
2022/09/05 14:01:54;;;;;;;4.62;2.10;;;;;;;28.97;32.43;101103.75;18354404;32;20451;-56
2022/09/05 14:12:29;;;;;;;4.47;2.22;;;;;;;29.89;32.43;101100.03;18353953;32;20116;-57
2022/09/05 14:22:40;;;;;;;3.72;2.17;;;;;;;29.15;32.49;101090.87;18366013;32;20108;-56
2022/09/05 14:33:14;;;;;;;6.50;2.45;;;;;;;28.96;32.21;101082.38;18366052;32;20093;-56
2022/09/05 14:44:06;;;;;;;5.62;2.50;;;;;;;29.30;31.55;101077.28;18363782;32;20159;-57
2022/09/05 14:54:12;;;;;;;4.40;2.60;;;;;;;29.24;34.39;101078.59;18348946;32;20402;-56
2022/09/05 15:04:42;;;;;;;5.40;2.20;;;;;;;29.57;31.79;101070.94;18364733;32;20115;-56
2022/09/05 15:15:12;;;;;;;5.43;2.65;;;;;;;29.24;32.93;101061.63;18363398;32;20093;-56
2022/09/05 15:25:18;;;;;;;5.35;2.53;;;;;;;29.08;33.74;101058.19;18360426;32;20117;-56
2022/09/05 15:35:35;;;;;;;3.75;2.20;;;;;;;28.67;33.21;101062.75;18371536;32;20089;-56
2022/09/05 15:45:40;;;;;;;9.13;2.62;;;;;;;28.69;35.41;101051.88;18371689;32;20107;-56
2022/09/05 15:55:47;;;;;;;8.07;2.70;;;;;;;28.30;34.60;101053.66;18371374;32;20087;-56
2022/09/05 16:06:01;;;;;;;4.25;1.90;;;;;;;28.05;36.56;101053.44;18371050;32;20089;-56
2022/09/05 16:16:29;;;;;;;3.83;2.00;;;;;;;27.59;37.15;101043.87;18355809;32;20346;-56
2022/09/05 16:26:55;;;;;;;6.72;2.22;;;;;;;27.51;37.70;101039.00;18371668;32;20184;-56
2022/09/05 16:37:03;;;;;;;5.87;2.17;;;;;;;27.31;42.01;101028.66;18356039;32;20115;-56
2022/09/05 16:47:21;;;;;;;10.15;3.10;;;;;;;27.03;41.53;101031.25;18355580;32;20108;-56
2022/09/05 16:57:27;;;;;;;5.32;2.20;;;;;;;26.59;44.66;101027.63;18355529;32;20116;-56
2022/09/05 17:07:36;;;;;;;5.62;2.62;;;;;;;26.23;45.47;101024.38;18354780;32;20122;-56
2022/09/05 17:17:55;;;;;;;6.10;2.28;;;;;;;25.94;47.68;101031.38;18368964;32;20130;-56
2022/09/05 17:28:58;;;;;;;6.28;3.00;;;;;;;25.51;49.93;101037.34;18376726;32;20097;-56
2022/09/05 17:39:31;;;;;;;8.20;3.25;;;;;;;25.03;50.79;101036.25;18369815;32;20445;-57
2022/09/05 17:49:49;;;;;;;5.10;2.90;;;;;;;24.55;52.55;101045.84;18414426;32;20125;-57
2022/09/05 17:59:53;;;;;;;9.25;3.40;;;;;;;24.21;52.63;101057.28;18429888;32;20089;-56
2022/09/05 18:09:58;;;;;;;7.20;3.45;;;;;;;23.87;53.62;101063.38;18366725;32;20093;-56
2022/09/05 18:20:21;;;;;;;11.32;5.53;;;;;;;23.46;53.63;101080.34;18352416;32;20132;-56
2022/09/05 18:30:33;;;;;;;12.50;4.70;;;;;;;23.09;56.35;101086.34;18349720;32;20097;-56
2022/09/05 18:40:55;;;;;;;9.32;3.60;;;;;;;22.84;56.09;101082.09;18351358;32;20123;-56
2022/09/05 18:50:59;;;;;;;10.60;4.83;;;;;;;22.63;56.30;101101.66;18364870;32;20093;-56
2022/09/05 19:01:26;;;;;;;12.02;5.95;;;;;;;22.49;56.80;101105.75;18370466;32;20127;-56
2022/09/05 19:11:34;;;;;;;9.30;4.53;;;;;;;22.12;59.07;101112.53;18435705;32;20101;-56
2022/09/05 19:21:44;;;;;;;9.85;3.70;;;;;;;22.17;58.50;101105.22;18407807;32;20687;-56
2022/09/05 19:31:49;;;;;;;8.52;3.62;;;;;;;22.16;57.50;101098.16;18395182;32;20369;-56
2022/09/05 19:42:15;;;;;;;8.73;3.58;;;;;;;22.04;57.24;101099.50;18399462;32;20120;-56
2022/09/05 19:52:39;;;;;;;6.43;3.40;;;;;;;22.28;55.37;101095.00;18379807;32;20115;-56
2022/09/05 20:02:49;;;;;;;10.18;3.37;;;;;;;21.99;55.73;101101.50;18434503;32;20401;-56
2022/09/05 20:12:53;;;;;;;8.07;3.63;;;;;;;21.76;57.46;101090.84;18418900;32;20168;-56
2022/09/05 20:23:02;;;;;;;6.80;3.50;;;;;;;21.91;56.36;101099.16;18420584;32;20105;-56
2022/09/05 20:33:10;;;;;;;8.10;3.67;;;;;;;21.45;57.80;101099.94;18419874;32;20397;-56
2022/09/05 20:43:18;;;;;;;10.63;3.85;;;;;;;21.25;58.43;101105.09;18434233;32;20085;-56
2022/09/05 20:53:41;;;;;;;11.52;4.53;;;;;;;20.99;59.32;101099.78;18434702;32;20718;-56
2022/09/05 21:04:06;;;;;;;11.95;4.10;;;;;;;20.76;59.38;101096.09;18429684;32;20093;-56
2022/09/05 21:14:10;;;;;;;7.55;3.60;;;;;;;20.48;60.05;101099.66;18420144;32;20093;-56
2022/09/05 21:24:23;;;;;;;6.00;2.70;;;;;;;20.22;60.70;101111.13;18454336;32;20537;-56
2022/09/05 21:34:28;;;;;;;2.85;1.42;;;;;;;20.05;61.45;101116.94;18453684;32;20370;-56
2022/09/05 21:44:35;;;;;;;1.27;1.10;;;;;;;19.92;61.32;101114.63;18432362;32;20104;-56
2022/09/05 21:54:58;;;;;;;3.28;2.03;;;;;;;19.86;61.54;101117.44;18431286;32;20372;-56
2022/09/05 22:05:24;;;;;;;1.02;0.45;;;;;;;19.66;62.20;101105.66;18432452;32;20096;-56
2022/09/05 22:15:31;;;;;;;0.37;0.37;;;;;;;19.37;62.82;101099.41;18431738;32;20380;-56
2022/09/05 22:25:36;;;;;;;0.47;0.47;;;;;;;19.27;62.73;101103.22;18428260;32;72936;-56
2022/09/05 22:35:40;;;;;;;0.20;0.20;;;;;;;19.00;62.91;101100.38;18432536;32;20128;-56
2022/09/05 22:45:44;;;;;;;0.17;0.17;;;;;;;18.67;64.43;101098.56;18451051;32;20097;-56
2022/09/05 22:55:56;;;;;;;0.20;0.20;;;;;;;18.57;64.65;101092.66;18450514;32;20107;-56
2022/09/05 23:06:02;;;;;;;;;;;;;;;18.65;64.59;101084.50;18451292;32;20089;-56
2022/09/05 23:16:06;;;;;;;0.32;0.28;;;;;;;18.77;64.27;101088.63;18449464;32;19976;-56
2022/09/05 23:26:12;;;;;;;0.37;0.20;;;;;;;18.67;64.73;101085.34;18448715;32;20116;-56
2022/09/05 23:36:16;;;;;;;0.30;0.30;;;;;;;18.50;65.23;101071.69;18447633;32;20084;-56
2022/09/05 23:46:20;;;;;;;0.88;0.45;;;;;;;18.49;65.00;101069.94;18433200;32;20365;-56
2022/09/05 23:56:24;;;;;;;0.20;0.20;;;;;;;18.51;64.91;101061.06;18434927;32;20187;-55
